sensor_id;sensor_type;location;lat;lon;timestamp;P1;durP1;ratioP1;P2;durP2;ratioP2
48627;SDS011;34424;52.234;6.500;2023-05-14T00:03:56;26.25;;;20.80;;
48627;SDS011;34424;52.234;6.500;2023-05-14T00:08:59;25.08;;;19.73;;
48627;SDS011;34424;52.234;6.500;2023-05-14T00:14:03;25.63;;;20.27;;
48627;SDS011;34424;52.234;6.500;2023-05-14T00:19:06;25.58;;;21.75;;
48627;SDS011;34424;52.234;6.500;2023-05-14T00:24:09;24.60;;;21.17;;
48627;SDS011;34424;52.234;6.500;2023-05-14T00:29:13;25.97;;;20.13;;
48627;SDS011;34424;52.234;6.500;2023-05-14T00:34:15;25.05;;;19.90;;
48627;SDS011;34424;52.234;6.500;2023-05-14T00:39:18;23.20;;;19.73;;
48627;SDS011;34424;52.234;6.500;2023-05-14T00:44:22;29.80;;;21.03;;
48627;SDS011;34424;52.234;6.500;2023-05-14T00:49:25;23.35;;;19.45;;
48627;SDS011;34424;52.234;6.500;2023-05-14T00:54:28;23.65;;;19.98;;
48627;SDS011;34424;52.234;6.500;2023-05-14T00:59:33;23.75;;;18.58;;
48627;SDS011;34424;52.234;6.500;2023-05-14T01:04:36;26.15;;;20.30;;
48627;SDS011;34424;52.234;6.500;2023-05-14T01:09:42;27.73;;;20.63;;
48627;SDS011;34424;52.234;6.500;2023-05-14T01:14:53;26.80;;;21.80;;
48627;SDS011;34424;52.234;6.500;2023-05-14T01:19:58;24.10;;;21.42;;
48627;SDS011;34424;52.234;6.500;2023-05-14T01:25:03;30.60;;;21.60;;
48627;SDS011;34424;52.234;6.500;2023-05-14T01:30:08;27.67;;;23.52;;
48627;SDS011;34424;52.234;6.500;2023-05-14T01:35:16;25.48;;;22.55;;
48627;SDS011;34424;52.234;6.500;2023-05-14T01:45:24;29.45;;;23.08;;
48627;SDS011;34424;52.234;6.500;2023-05-14T01:50:27;28.02;;;24.83;;
48627;SDS011;34424;52.234;6.500;2023-05-14T01:55:31;30.40;;;24.90;;
48627;SDS011;34424;52.234;6.500;2023-05-14T02:00:34;32.30;;;24.98;;
48627;SDS011;34424;52.234;6.500;2023-05-14T02:05:36;32.40;;;26.03;;
48627;SDS011;34424;52.234;6.500;2023-05-14T02:10:40;30.30;;;25.73;;
48627;SDS011;34424;52.234;6.500;2023-05-14T02:15:43;35.15;;;26.77;;
48627;SDS011;34424;52.234;6.500;2023-05-14T02:20:45;35.03;;;27.53;;
48627;SDS011;34424;52.234;6.500;2023-05-14T02:25:49;34.97;;;27.63;;
48627;SDS011;34424;52.234;6.500;2023-05-14T02:30:56;33.53;;;27.77;;
48627;SDS011;34424;52.234;6.500;2023-05-14T02:35:59;35.78;;;27.13;;
48627;SDS011;34424;52.234;6.500;2023-05-14T02:41:03;32.10;;;26.10;;
48627;SDS011;34424;52.234;6.500;2023-05-14T02:46:06;33.13;;;26.50;;
48627;SDS011;34424;52.234;6.500;2023-05-14T02:51:09;40.13;;;29.57;;
48627;SDS011;34424;52.234;6.500;2023-05-14T02:56:14;36.23;;;29.43;;
48627;SDS011;34424;52.234;6.500;2023-05-14T03:01:17;37.40;;;30.77;;
48627;SDS011;34424;52.234;6.500;2023-05-14T03:11:24;43.88;;;31.90;;
48627;SDS011;34424;52.234;6.500;2023-05-14T03:16:26;40.95;;;32.72;;
48627;SDS011;34424;52.234;6.500;2023-05-14T03:21:29;48.77;;;34.13;;
48627;SDS011;34424;52.234;6.500;2023-05-14T03:26:33;44.90;;;34.33;;
48627;SDS011;34424;52.234;6.500;2023-05-14T03:31:37;43.53;;;31.75;;
48627;SDS011;34424;52.234;6.500;2023-05-14T03:36:40;46.43;;;35.17;;
48627;SDS011;34424;52.234;6.500;2023-05-14T03:41:44;44.13;;;35.73;;
48627;SDS011;34424;52.234;6.500;2023-05-14T03:46:47;46.60;;;35.58;;
48627;SDS011;34424;52.234;6.500;2023-05-14T03:51:50;48.70;;;36.07;;
48627;SDS011;34424;52.234;6.500;2023-05-14T03:56:53;47.42;;;35.05;;
48627;SDS011;34424;52.234;6.500;2023-05-14T04:01:56;49.83;;;33.50;;
48627;SDS011;34424;52.234;6.500;2023-05-14T04:06:59;46.28;;;34.55;;
48627;SDS011;34424;52.234;6.500;2023-05-14T04:12:03;42.60;;;34.80;;
48627;SDS011;34424;52.234;6.500;2023-05-14T04:17:07;41.92;;;32.88;;
48627;SDS011;34424;52.234;6.500;2023-05-14T04:22:09;50.30;;;33.23;;
48627;SDS011;34424;52.234;6.500;2023-05-14T04:27:14;45.03;;;33.17;;
48627;SDS011;34424;52.234;6.500;2023-05-14T04:32:21;41.42;;;32.75;;
48627;SDS011;34424;52.234;6.500;2023-05-14T04:37:24;35.90;;;29.63;;
48627;SDS011;34424;52.234;6.500;2023-05-14T04:42:28;39.92;;;28.65;;
48627;SDS011;34424;52.234;6.500;2023-05-14T04:47:31;32.15;;;27.35;;
48627;SDS011;34424;52.234;6.500;2023-05-14T04:52:33;28.95;;;23.50;;
48627;SDS011;34424;52.234;6.500;2023-05-14T04:57:37;30.80;;;24.73;;
48627;SDS011;34424;52.234;6.500;2023-05-14T05:02:40;31.45;;;23.88;;
48627;SDS011;34424;52.234;6.500;2023-05-14T05:07:43;28.03;;;22.80;;
48627;SDS011;34424;52.234;6.500;2023-05-14T05:12:47;32.17;;;23.87;;
48627;SDS011;34424;52.234;6.500;2023-05-14T05:17:49;25.70;;;19.70;;
48627;SDS011;34424;52.234;6.500;2023-05-14T05:22:52;21.38;;;17.73;;
48627;SDS011;34424;52.234;6.500;2023-05-14T05:27:56;17.60;;;14.90;;
48627;SDS011;34424;52.234;6.500;2023-05-14T05:32:59;15.48;;;13.63;;
48627;SDS011;34424;52.234;6.500;2023-05-14T05:38:02;15.88;;;13.27;;
48627;SDS011;34424;52.234;6.500;2023-05-14T05:43:06;16.48;;;11.85;;
48627;SDS011;34424;52.234;6.500;2023-05-14T05:48:09;14.00;;;12.38;;
48627;SDS011;34424;52.234;6.500;2023-05-14T05:53:11;16.65;;;12.65;;
48627;SDS011;34424;52.234;6.500;2023-05-14T05:58:15;17.45;;;13.38;;
48627;SDS011;34424;52.234;6.500;2023-05-14T06:03:18;15.45;;;12.35;;
48627;SDS011;34424;52.234;6.500;2023-05-14T06:08:21;17.25;;;12.88;;
48627;SDS011;34424;52.234;6.500;2023-05-14T06:13:25;17.67;;;12.48;;
48627;SDS011;34424;52.234;6.500;2023-05-14T06:18:27;15.10;;;11.50;;
48627;SDS011;34424;52.234;6.500;2023-05-14T06:28:34;17.40;;;11.88;;
48627;SDS011;34424;52.234;6.500;2023-05-14T06:33:37;16.17;;;12.85;;
48627;SDS011;34424;52.234;6.500;2023-05-14T06:38:39;13.05;;;11.73;;
48627;SDS011;34424;52.234;6.500;2023-05-14T06:53:48;16.20;;;11.63;;
48627;SDS011;34424;52.234;6.500;2023-05-14T06:58:54;13.65;;;11.27;;
48627;SDS011;34424;52.234;6.500;2023-05-14T07:03:57;12.13;;;10.10;;
48627;SDS011;34424;52.234;6.500;2023-05-14T07:09:00;13.02;;;10.93;;
48627;SDS011;34424;52.234;6.500;2023-05-14T07:14:04;12.70;;;10.40;;
48627;SDS011;34424;52.234;6.500;2023-05-14T07:19:07;13.32;;;11.75;;
48627;SDS011;34424;52.234;6.500;2023-05-14T07:24:10;13.20;;;11.35;;
48627;SDS011;34424;52.234;6.500;2023-05-14T07:29:14;12.27;;;10.73;;
48627;SDS011;34424;52.234;6.500;2023-05-14T07:34:17;15.43;;;12.55;;
48627;SDS011;34424;52.234;6.500;2023-05-14T07:39:19;13.00;;;11.63;;
48627;SDS011;34424;52.234;6.500;2023-05-14T07:44:23;16.17;;;12.77;;
48627;SDS011;34424;52.234;6.500;2023-05-14T07:49:26;14.75;;;13.20;;
48627;SDS011;34424;52.234;6.500;2023-05-14T07:54:29;15.38;;;13.75;;
48627;SDS011;34424;52.234;6.500;2023-05-14T07:59:32;15.02;;;13.32;;
48627;SDS011;34424;52.234;6.500;2023-05-14T08:04:35;16.00;;;13.20;;
48627;SDS011;34424;52.234;6.500;2023-05-14T08:09:38;12.63;;;11.32;;
48627;SDS011;34424;52.234;6.500;2023-05-14T08:14:42;13.50;;;12.10;;
48627;SDS011;34424;52.234;6.500;2023-05-14T08:19:45;12.70;;;11.40;;
48627;SDS011;34424;52.234;6.500;2023-05-14T08:24:48;11.43;;;10.27;;
48627;SDS011;34424;52.234;6.500;2023-05-14T08:29:52;9.90;;;8.90;;
48627;SDS011;34424;52.234;6.500;2023-05-14T08:34:54;11.57;;;9.90;;
48627;SDS011;34424;52.234;6.500;2023-05-14T08:39:57;12.05;;;10.25;;
48627;SDS011;34424;52.234;6.500;2023-05-14T08:45:01;10.05;;;9.15;;
48627;SDS011;34424;52.234;6.500;2023-05-14T08:50:05;11.90;;;9.65;;
48627;SDS011;34424;52.234;6.500;2023-05-14T08:55:09;11.02;;;8.95;;
48627;SDS011;34424;52.234;6.500;2023-05-14T09:00:15;16.52;;;9.77;;
48627;SDS011;34424;52.234;6.500;2023-05-14T09:05:19;11.43;;;9.07;;
48627;SDS011;34424;52.234;6.500;2023-05-14T09:10:23;10.30;;;9.07;;
48627;SDS011;34424;52.234;6.500;2023-05-14T09:15:28;9.93;;;8.65;;
48627;SDS011;34424;52.234;6.500;2023-05-14T09:20:32;12.13;;;10.85;;
48627;SDS011;34424;52.234;6.500;2023-05-14T09:25:34;9.73;;;8.68;;
48627;SDS011;34424;52.234;6.500;2023-05-14T09:30:38;8.57;;;6.70;;
48627;SDS011;34424;52.234;6.500;2023-05-14T09:35:41;10.95;;;9.10;;
48627;SDS011;34424;52.234;6.500;2023-05-14T09:40:44;9.38;;;8.50;;
48627;SDS011;34424;52.234;6.500;2023-05-14T09:45:49;12.02;;;9.77;;
48627;SDS011;34424;52.234;6.500;2023-05-14T09:50:51;10.38;;;9.32;;
48627;SDS011;34424;52.234;6.500;2023-05-14T09:55:54;10.68;;;9.40;;
48627;SDS011;34424;52.234;6.500;2023-05-14T10:00:58;11.57;;;9.30;;
48627;SDS011;34424;52.234;6.500;2023-05-14T10:06:03;8.70;;;7.90;;
48627;SDS011;34424;52.234;6.500;2023-05-14T10:11:09;10.50;;;9.30;;
48627;SDS011;34424;52.234;6.500;2023-05-14T10:16:18;9.13;;;8.27;;
48627;SDS011;34424;52.234;6.500;2023-05-14T10:21:25;10.10;;;9.07;;
48627;SDS011;34424;52.234;6.500;2023-05-14T10:26:31;7.22;;;6.57;;
48627;SDS011;34424;52.234;6.500;2023-05-14T10:31:46;9.15;;;8.13;;
48627;SDS011;34424;52.234;6.500;2023-05-14T10:36:50;9.50;;;7.53;;
48627;SDS011;34424;52.234;6.500;2023-05-14T10:41:53;8.13;;;7.30;;
48627;SDS011;34424;52.234;6.500;2023-05-14T10:46:57;8.88;;;7.28;;
48627;SDS011;34424;52.234;6.500;2023-05-14T10:52:00;9.82;;;7.20;;
48627;SDS011;34424;52.234;6.500;2023-05-14T10:57:04;6.95;;;5.07;;
48627;SDS011;34424;52.234;6.500;2023-05-14T11:02:20;9.55;;;7.82;;
48627;SDS011;34424;52.234;6.500;2023-05-14T11:12:31;5.40;;;4.93;;
48627;SDS011;34424;52.234;6.500;2023-05-14T11:17:37;8.40;;;7.60;;
48627;SDS011;34424;52.234;6.500;2023-05-14T11:22:43;7.97;;;6.22;;
48627;SDS011;34424;52.234;6.500;2023-05-14T11:27:46;11.68;;;5.60;;
48627;SDS011;34424;52.234;6.500;2023-05-14T11:32:52;6.28;;;5.72;;
48627;SDS011;34424;52.234;6.500;2023-05-14T11:37:55;6.55;;;5.78;;
48627;SDS011;34424;52.234;6.500;2023-05-14T11:42:57;8.75;;;6.13;;
48627;SDS011;34424;52.234;6.500;2023-05-14T11:48:02;6.78;;;4.85;;
48627;SDS011;34424;52.234;6.500;2023-05-14T11:53:15;5.05;;;4.55;;
48627;SDS011;34424;52.234;6.500;2023-05-14T11:58:19;4.35;;;3.28;;
48627;SDS011;34424;52.234;6.500;2023-05-14T12:03:23;5.38;;;3.88;;
48627;SDS011;34424;52.234;6.500;2023-05-14T12:08:27;4.60;;;3.03;;
48627;SDS011;34424;52.234;6.500;2023-05-14T12:13:31;5.43;;;3.83;;
48627;SDS011;34424;52.234;6.500;2023-05-14T12:18:39;9.15;;;4.45;;
48627;SDS011;34424;52.234;6.500;2023-05-14T12:23:41;5.72;;;3.17;;
48627;SDS011;34424;52.234;6.500;2023-05-14T12:28:44;7.20;;;4.93;;
48627;SDS011;34424;52.234;6.500;2023-05-14T12:33:50;4.40;;;4.00;;
48627;SDS011;34424;52.234;6.500;2023-05-14T12:38:56;4.22;;;2.80;;
48627;SDS011;34424;52.234;6.500;2023-05-14T12:44:01;5.30;;;3.72;;
48627;SDS011;34424;52.234;6.500;2023-05-14T12:49:05;4.80;;;3.63;;
48627;SDS011;34424;52.234;6.500;2023-05-14T12:54:08;3.45;;;2.72;;
48627;SDS011;34424;52.234;6.500;2023-05-14T12:59:13;7.57;;;3.47;;
48627;SDS011;34424;52.234;6.500;2023-05-14T13:04:17;3.97;;;3.08;;
48627;SDS011;34424;52.234;6.500;2023-05-14T13:09:20;5.47;;;2.80;;
48627;SDS011;34424;52.234;6.500;2023-05-14T13:14:22;3.45;;;2.40;;
48627;SDS011;34424;52.234;6.500;2023-05-14T13:19:27;7.47;;;2.85;;
48627;SDS011;34424;52.234;6.500;2023-05-14T13:24:29;3.42;;;2.63;;
48627;SDS011;34424;52.234;6.500;2023-05-14T13:29:32;3.85;;;2.42;;
48627;SDS011;34424;52.234;6.500;2023-05-14T13:34:36;5.20;;;2.60;;
48627;SDS011;34424;52.234;6.500;2023-05-14T13:39:38;3.30;;;2.28;;
48627;SDS011;34424;52.234;6.500;2023-05-14T13:44:41;2.60;;;2.15;;
48627;SDS011;34424;52.234;6.500;2023-05-14T13:49:47;3.95;;;2.60;;
48627;SDS011;34424;52.234;6.500;2023-05-14T13:54:50;3.90;;;2.83;;
48627;SDS011;34424;52.234;6.500;2023-05-14T13:59:53;3.58;;;2.97;;
48627;SDS011;34424;52.234;6.500;2023-05-14T14:04:57;2.65;;;2.45;;
48627;SDS011;34424;52.234;6.500;2023-05-14T14:10:00;3.10;;;2.60;;
48627;SDS011;34424;52.234;6.500;2023-05-14T14:15:03;4.25;;;3.03;;
48627;SDS011;34424;52.234;6.500;2023-05-14T14:20:08;6.38;;;3.13;;
48627;SDS011;34424;52.234;6.500;2023-05-14T14:25:12;5.45;;;2.95;;
48627;SDS011;34424;52.234;6.500;2023-05-14T14:30:14;3.35;;;2.97;;
48627;SDS011;34424;52.234;6.500;2023-05-14T14:35:18;4.22;;;3.40;;
48627;SDS011;34424;52.234;6.500;2023-05-14T14:40:21;4.65;;;3.40;;
48627;SDS011;34424;52.234;6.500;2023-05-14T14:45:24;4.30;;;3.35;;
48627;SDS011;34424;52.234;6.500;2023-05-14T14:50:28;4.28;;;3.20;;
48627;SDS011;34424;52.234;6.500;2023-05-14T14:55:31;4.57;;;3.08;;
48627;SDS011;34424;52.234;6.500;2023-05-14T15:00:33;4.55;;;3.58;;
48627;SDS011;34424;52.234;6.500;2023-05-14T15:05:38;5.78;;;3.13;;
48627;SDS011;34424;52.234;6.500;2023-05-14T15:10:40;3.20;;;2.90;;
48627;SDS011;34424;52.234;6.500;2023-05-14T15:15:43;3.35;;;2.60;;
48627;SDS011;34424;52.234;6.500;2023-05-14T15:20:47;5.45;;;3.10;;
48627;SDS011;34424;52.234;6.500;2023-05-14T15:25:50;3.47;;;3.17;;
48627;SDS011;34424;52.234;6.500;2023-05-14T15:30:52;3.75;;;3.00;;
48627;SDS011;34424;52.234;6.500;2023-05-14T15:35:57;5.40;;;3.20;;
48627;SDS011;34424;52.234;6.500;2023-05-14T15:40:59;3.88;;;2.90;;
48627;SDS011;34424;52.234;6.500;2023-05-14T15:46:02;4.80;;;2.75;;
48627;SDS011;34424;52.234;6.500;2023-05-14T15:51:06;6.15;;;3.08;;
48627;SDS011;34424;52.234;6.500;2023-05-14T15:56:09;7.00;;;3.70;;
48627;SDS011;34424;52.234;6.500;2023-05-14T16:01:11;3.45;;;2.70;;
48627;SDS011;34424;52.234;6.500;2023-05-14T16:06:15;4.88;;;3.25;;
48627;SDS011;34424;52.234;6.500;2023-05-14T16:11:18;5.90;;;3.47;;
48627;SDS011;34424;52.234;6.500;2023-05-14T16:16:21;6.35;;;3.33;;
48627;SDS011;34424;52.234;6.500;2023-05-14T16:21:25;4.57;;;3.58;;
48627;SDS011;34424;52.234;6.500;2023-05-14T16:26:28;5.65;;;3.45;;
48627;SDS011;34424;52.234;6.500;2023-05-14T16:31:31;7.80;;;3.20;;
48627;SDS011;34424;52.234;6.500;2023-05-14T16:36:35;4.47;;;3.20;;
48627;SDS011;34424;52.234;6.500;2023-05-14T16:41:37;4.18;;;3.42;;
48627;SDS011;34424;52.234;6.500;2023-05-14T16:46:40;6.10;;;3.63;;
48627;SDS011;34424;52.234;6.500;2023-05-14T16:51:44;5.53;;;3.55;;
48627;SDS011;34424;52.234;6.500;2023-05-14T16:56:46;3.80;;;3.38;;
48627;SDS011;34424;52.234;6.500;2023-05-14T17:01:49;5.05;;;3.72;;
48627;SDS011;34424;52.234;6.500;2023-05-14T17:06:53;4.60;;;3.85;;
48627;SDS011;34424;52.234;6.500;2023-05-14T17:11:57;6.03;;;4.20;;
48627;SDS011;34424;52.234;6.500;2023-05-14T17:17:01;5.47;;;3.35;;
48627;SDS011;34424;52.234;6.500;2023-05-14T17:22:05;4.53;;;3.20;;
48627;SDS011;34424;52.234;6.500;2023-05-14T17:27:08;5.18;;;3.63;;
48627;SDS011;34424;52.234;6.500;2023-05-14T17:32:11;5.07;;;2.97;;
48627;SDS011;34424;52.234;6.500;2023-05-14T17:37:17;3.50;;;3.10;;
48627;SDS011;34424;52.234;6.500;2023-05-14T17:42:21;3.38;;;3.08;;
48627;SDS011;34424;52.234;6.500;2023-05-14T17:47:24;5.65;;;3.20;;
48627;SDS011;34424;52.234;6.500;2023-05-14T17:52:30;3.58;;;3.08;;
48627;SDS011;34424;52.234;6.500;2023-05-14T17:57:37;5.53;;;3.20;;
48627;SDS011;34424;52.234;6.500;2023-05-14T18:02:40;4.32;;;3.20;;
48627;SDS011;34424;52.234;6.500;2023-05-14T18:07:45;4.18;;;2.92;;
48627;SDS011;34424;52.234;6.500;2023-05-14T18:12:48;7.47;;;4.35;;
48627;SDS011;34424;52.234;6.500;2023-05-14T18:17:52;4.30;;;3.90;;
48627;SDS011;34424;52.234;6.500;2023-05-14T18:22:58;4.40;;;4.00;;
48627;SDS011;34424;52.234;6.500;2023-05-14T18:28:02;8.40;;;3.95;;
48627;SDS011;34424;52.234;6.500;2023-05-14T18:33:06;5.35;;;3.72;;
48627;SDS011;34424;52.234;6.500;2023-05-14T18:38:10;4.63;;;3.75;;
48627;SDS011;34424;52.234;6.500;2023-05-14T18:43:17;5.07;;;3.60;;
48627;SDS011;34424;52.234;6.500;2023-05-14T18:48:20;7.85;;;4.15;;
48627;SDS011;34424;52.234;6.500;2023-05-14T18:53:25;9.02;;;6.13;;
48627;SDS011;34424;52.234;6.500;2023-05-14T18:58:29;10.73;;;8.38;;
48627;SDS011;34424;52.234;6.500;2023-05-14T19:03:32;14.30;;;10.10;;
48627;SDS011;34424;52.234;6.500;2023-05-14T19:08:37;17.98;;;11.48;;
48627;SDS011;34424;52.234;6.500;2023-05-14T19:13:41;16.67;;;12.43;;
48627;SDS011;34424;52.234;6.500;2023-05-14T19:18:48;24.52;;;14.80;;
48627;SDS011;34424;52.234;6.500;2023-05-14T19:23:56;21.20;;;14.35;;
48627;SDS011;34424;52.234;6.500;2023-05-14T19:29:00;21.38;;;15.73;;
48627;SDS011;34424;52.234;6.500;2023-05-14T19:34:06;23.45;;;16.52;;
48627;SDS011;34424;52.234;6.500;2023-05-14T19:39:10;19.85;;;15.18;;
48627;SDS011;34424;52.234;6.500;2023-05-14T19:44:13;22.42;;;16.35;;
48627;SDS011;34424;52.234;6.500;2023-05-14T19:49:15;25.00;;;16.17;;
48627;SDS011;34424;52.234;6.500;2023-05-14T19:54:19;26.88;;;16.83;;
48627;SDS011;34424;52.234;6.500;2023-05-14T19:59:22;26.77;;;16.95;;
48627;SDS011;34424;52.234;6.500;2023-05-14T20:04:25;25.67;;;16.90;;
48627;SDS011;34424;52.234;6.500;2023-05-14T20:09:29;24.92;;;16.92;;
48627;SDS011;34424;52.234;6.500;2023-05-14T20:14:32;33.38;;;18.55;;
48627;SDS011;34424;52.234;6.500;2023-05-14T20:19:34;29.20;;;18.83;;
48627;SDS011;34424;52.234;6.500;2023-05-14T20:24:38;28.77;;;18.70;;
48627;SDS011;34424;52.234;6.500;2023-05-14T20:29:41;24.08;;;18.95;;
48627;SDS011;34424;52.234;6.500;2023-05-14T20:34:44;26.40;;;19.60;;
48627;SDS011;34424;52.234;6.500;2023-05-14T20:39:48;34.67;;;21.10;;
48627;SDS011;34424;52.234;6.500;2023-05-14T20:44:51;32.65;;;21.00;;
48627;SDS011;34424;52.234;6.500;2023-05-14T20:49:54;29.70;;;20.33;;
48627;SDS011;34424;52.234;6.500;2023-05-14T20:54:58;28.63;;;20.77;;
48627;SDS011;34424;52.234;6.500;2023-05-14T21:00:03;30.17;;;20.05;;
48627;SDS011;34424;52.234;6.500;2023-05-14T21:05:09;27.42;;;20.75;;
48627;SDS011;34424;52.234;6.500;2023-05-14T21:10:13;30.20;;;21.58;;
48627;SDS011;34424;52.234;6.500;2023-05-14T21:15:16;24.10;;;19.45;;
48627;SDS011;34424;52.234;6.500;2023-05-14T21:20:19;28.38;;;20.15;;
48627;SDS011;34424;52.234;6.500;2023-05-14T21:25:23;29.05;;;20.67;;
48627;SDS011;34424;52.234;6.500;2023-05-14T21:30:26;29.75;;;20.85;;
48627;SDS011;34424;52.234;6.500;2023-05-14T21:35:29;31.97;;;22.10;;
48627;SDS011;34424;52.234;6.500;2023-05-14T21:40:33;32.20;;;23.05;;
48627;SDS011;34424;52.234;6.500;2023-05-14T21:45:36;28.88;;;21.90;;
48627;SDS011;34424;52.234;6.500;2023-05-14T21:50:38;28.37;;;20.83;;
48627;SDS011;34424;52.234;6.500;2023-05-14T21:55:42;29.37;;;21.10;;
48627;SDS011;34424;52.234;6.500;2023-05-14T22:00:45;28.58;;;19.27;;
48627;SDS011;34424;52.234;6.500;2023-05-14T22:05:48;29.00;;;20.90;;
48627;SDS011;34424;52.234;6.500;2023-05-14T22:10:52;31.60;;;20.95;;
48627;SDS011;34424;52.234;6.500;2023-05-14T22:15:56;30.30;;;19.52;;
48627;SDS011;34424;52.234;6.500;2023-05-14T22:21:14;26.48;;;19.38;;
48627;SDS011;34424;52.234;6.500;2023-05-14T22:26:19;27.88;;;19.70;;
48627;SDS011;34424;52.234;6.500;2023-05-14T22:31:22;25.38;;;19.38;;
48627;SDS011;34424;52.234;6.500;2023-05-14T22:36:25;27.75;;;21.20;;
48627;SDS011;34424;52.234;6.500;2023-05-14T22:41:30;28.27;;;20.75;;
48627;SDS011;34424;52.234;6.500;2023-05-14T22:46:33;26.60;;;20.48;;
48627;SDS011;34424;52.234;6.500;2023-05-14T22:51:38;26.00;;;19.52;;
48627;SDS011;34424;52.234;6.500;2023-05-14T22:56:42;30.23;;;21.25;;
48627;SDS011;34424;52.234;6.500;2023-05-14T23:01:53;27.83;;;21.52;;
48627;SDS011;34424;52.234;6.500;2023-05-14T23:06:56;25.17;;;19.98;;
48627;SDS011;34424;52.234;6.500;2023-05-14T23:17:04;27.95;;;21.08;;
48627;SDS011;34424;52.234;6.500;2023-05-14T23:22:08;27.88;;;21.80;;
48627;SDS011;34424;52.234;6.500;2023-05-14T23:27:14;30.10;;;21.83;;
48627;SDS011;34424;52.234;6.500;2023-05-14T23:37:43;33.08;;;22.98;;
48627;SDS011;34424;52.234;6.500;2023-05-14T23:42:49;30.40;;;22.95;;
48627;SDS011;34424;52.234;6.500;2023-05-14T23:47:52;30.90;;;23.58;;
48627;SDS011;34424;52.234;6.500;2023-05-14T23:52:55;33.88;;;22.40;;
48627;SDS011;34424;52.234;6.500;2023-05-14T23:57:59;33.97;;;24.63;;
